Time;durP1;ratioP1;P1;durP2;ratioP2;P2;SDS_P1;SDS_P2;PMS_P1;PMS_P2;Temp;Humidity;BMP_temperature;BMP_pressure;BME280_temperature;BME280_humidity;BME280_pressure;Samples;Min_cycle;Max_cycle;Signal;HPM_P1;HPM_P2
2021/03/28 00:00:00;;;;;;;11.53;2.87;;;;;;;;;;5049063;28;20519;-73
2021/03/28 00:02:31;;;;;;;6.93;2.57;;;;;;;;;;5057167;28;20465;-72
2021/03/28 00:05:02;;;;;;;14.30;2.97;;;;;;;;;;5055949;28;20454;-72
2021/03/28 00:07:38;;;;;;;9.00;2.73;;;;;;;;;;5056589;28;20473;-72
2021/03/28 00:10:08;;;;;;;5.43;2.50;;;;;;;;;;5057882;28;20476;-72
2021/03/28 00:12:38;;;;;;;9.53;2.83;;;;;;;;;;5056270;28;20496;-72
2021/03/28 00:15:21;;;;;;;9.47;2.57;;;;;;;;;;5056178;28;20516;-72
2021/03/28 00:17:50;;;;;;;4.83;3.70;;;;;;;;;;5056389;28;20449;-72
2021/03/28 00:20:30;;;;;;;20.00;2.97;;;;;;;;;;5055410;28;20496;-72
2021/03/28 00:23:06;;;;;;;7.33;2.73;;;;;;;;;;5056573;28;20450;-72
2021/03/28 00:25:35;;;;;;;7.23;3.00;;;;;;;;;;5060277;28;20728;-72
2021/03/28 00:28:04;;;;;;;6.10;2.50;;;;;;;;;;5059936;28;20723;-72
2021/03/28 00:30:34;;;;;;;7.50;3.50;;;;;;;;;;5060432;28;20483;-71
2021/03/28 00:33:06;;;;;;;7.20;2.00;;;;;;;;;;5059665;28;20453;-71
2021/03/28 00:35:36;;;;;;;12.13;2.70;;;;;;;;;;5059704;28;20464;-71
2021/03/28 00:38:13;;;;;;;10.27;2.63;;;;;;;;;;5059435;28;20463;-72
2021/03/28 00:40:41;;;;;;;8.73;2.90;;;;;;;;;;5066883;28;20457;-71
2021/03/28 00:43:16;;;;;;;8.57;3.00;;;;;;;;;;5071554;28;20456;-71
2021/03/28 00:45:49;;;;;;;7.87;2.73;;;;;;;;;;5079668;28;20465;-71
2021/03/28 00:48:19;;;;;;;9.13;2.77;;;;;;;;;;5080559;28;20441;-71
2021/03/28 00:50:51;;;;;;;16.10;4.27;;;;;;;;;;5080653;28;20475;-72
2021/03/28 00:53:31;;;;;;;7.07;2.47;;;;;;;;;;5075317;28;20458;-71
2021/03/28 00:56:00;;;;;;;7.87;2.47;;;;;;;;;;5060174;28;20868;-71
2021/03/28 00:58:29;;;;;;;11.20;3.50;;;;;;;;;;5061080;28;20449;-72
2021/03/28 01:01:15;;;;;;;10.27;2.90;;;;;;;;;;5060097;28;20887;-72
2021/03/28 01:03:57;;;;;;;17.50;3.60;;;;;;;;;;5050332;28;20451;-71
2021/03/28 01:06:28;;;;;;;11.03;3.33;;;;;;;;;;5060151;28;20710;-72
2021/03/28 01:09:00;;;;;;;10.23;4.00;;;;;;;;;;5060626;28;20457;-72
2021/03/28 01:11:51;;;;;;;7.13;3.00;;;;;;;;;;5060494;28;20453;-72
2021/03/28 01:14:21;;;;;;;8.27;2.83;;;;;;;;;;5060872;28;20453;-72
2021/03/28 01:17:07;;;;;;;9.17;2.37;;;;;;;;;;5079493;28;20463;-72
2021/03/28 01:19:45;;;;;;;13.27;3.13;;;;;;;;;;5079742;28;20869;-72
2021/03/28 01:22:18;;;;;;;8.27;3.13;;;;;;;;;;5079817;28;20510;-72
2021/03/28 01:24:54;;;;;;;9.53;2.90;;;;;;;;;;5073541;28;20468;-72
2021/03/28 01:27:25;;;;;;;5.73;2.60;;;;;;;;;;5079584;28;20460;-72
2021/03/28 01:29:55;;;;;;;10.10;3.33;;;;;;;;;;5065373;28;20905;-72
2021/03/28 01:32:29;;;;;;;8.83;2.97;;;;;;;;;;5059577;28;20458;-72
2021/03/28 01:34:59;;;;;;;14.13;2.90;;;;;;;;;;5058462;28;20461;-72
2021/03/28 01:37:30;;;;;;;8.70;2.93;;;;;;;;;;5059157;28;20454;-72
2021/03/28 01:40:00;;;;;;;19.40;3.73;;;;;;;;;;5074413;28;20896;-72
2021/03/28 01:42:42;;;;;;;7.83;2.73;;;;;;;;;;5078992;28;20865;-72
2021/03/28 01:45:18;;;;;;;14.80;3.13;;;;;;;;;;5079130;28;20456;-72
2021/03/28 01:47:51;;;;;;;15.83;4.07;;;;;;;;;;5079496;28;20463;-72
2021/03/28 01:50:48;;;;;;;10.50;3.03;;;;;;;;;;5078637;28;20610;-72
2021/03/28 01:53:29;;;;;;;8.17;2.97;;;;;;;;;;4997502;28;20892;-72
2021/03/28 01:56:00;;;;;;;5.77;2.40;;;;;;;;;;5068298;28;20786;-72
2021/03/28 01:58:47;;;;;;;9.30;2.97;;;;;;;;;;5078450;28;20870;-72
2021/03/28 02:01:20;;;;;;;11.50;3.80;;;;;;;;;;5078374;28;20464;-72
2021/03/28 02:03:53;;;;;;;11.20;4.50;;;;;;;;;;5078292;28;20453;-72
2021/03/28 02:06:33;;;;;;;6.50;2.57;;;;;;;;;;5078072;28;20543;-72
2021/03/28 02:09:05;;;;;;;7.87;2.57;;;;;;;;;;5078080;28;20460;-72
2021/03/28 02:11:37;;;;;;;16.30;2.80;;;;;;;;;;5078522;28;20468;-72
2021/03/28 02:14:11;;;;;;;7.80;3.23;;;;;;;;;;5078168;28;20449;-72
2021/03/28 02:16:49;;;;;;;11.10;3.27;;;;;;;;;;5078290;28;20767;-72
2021/03/28 02:19:19;;;;;;;14.33;3.63;;;;;;;;;;5074314;28;20489;-72
2021/03/28 02:21:55;;;;;;;10.57;3.23;;;;;;;;;;5059202;28;20895;-72
2021/03/28 02:24:26;;;;;;;10.47;2.97;;;;;;;;;;5058564;28;20695;-72
2021/03/28 02:27:04;;;;;;;10.60;2.73;;;;;;;;;;5057606;28;20461;-72
2021/03/28 02:29:40;;;;;;;6.90;3.70;;;;;;;;;;5059181;28;20503;-72
2021/03/28 02:32:22;;;;;;;11.37;3.07;;;;;;;;;;5058343;28;20472;-72
2021/03/28 02:34:56;;;;;;;8.83;2.70;;;;;;;;;;5056307;28;20478;-71
2021/03/28 02:37:28;;;;;;;7.70;2.57;;;;;;;;;;5058608;28;20523;-72
2021/03/28 02:39:58;;;;;;;6.63;2.60;;;;;;;;;;5077940;28;20498;-73
2021/03/28 02:42:32;;;;;;;7.10;2.50;;;;;;;;;;5077903;28;20452;-72
2021/03/28 02:45:07;;;;;;;8.00;3.47;;;;;;;;;;5077882;28;20472;-72
2021/03/28 02:47:56;;;;;;;9.93;2.83;;;;;;;;;;5077698;28;20453;-72
2021/03/28 02:50:41;;;;;;;9.93;2.60;;;;;;;;;;5077788;28;20805;-72
2021/03/28 02:53:17;;;;;;;11.00;2.93;;;;;;;;;;5077473;28;20732;-72
2021/03/28 02:56:03;;;;;;;7.40;2.87;;;;;;;;;;5078833;28;20865;-72
2021/03/28 02:58:43;;;;;;;8.20;2.53;;;;;;;;;;5078380;28;20457;-72
2021/03/28 03:01:26;;;;;;;8.37;3.07;;;;;;;;;;5073988;28;20455;-72
2021/03/28 03:04:03;;;;;;;10.43;3.10;;;;;;;;;;5077307;28;20468;-72
2021/03/28 03:06:59;;;;;;;8.63;3.27;;;;;;;;;;5077627;28;20456;-72
2021/03/28 03:09:32;;;;;;;14.77;2.33;;;;;;;;;;5057514;28;20442;-72
2021/03/28 03:12:18;;;;;;;14.30;3.80;;;;;;;;;;5057152;28;20519;-71
2021/03/28 03:14:53;;;;;;;5.43;2.37;;;;;;;;;;5057298;28;20461;-72
2021/03/28 03:17:47;;;;;;;11.73;3.27;;;;;;;;;;5056899;28;20729;-71
2021/03/28 03:20:47;;;;;;;11.23;3.37;;;;;;;;;;5057044;28;20489;-72
2021/03/28 03:23:29;;;;;;;8.50;2.37;;;;;;;;;;4995644;28;20945;-72
2021/03/28 03:26:09;;;;;;;12.13;3.50;;;;;;;;;;4987791;28;20464;-72
2021/03/28 03:28:51;;;;;;;6.27;2.43;;;;;;;;;;5035350;28;20465;-71
2021/03/28 03:31:34;;;;;;;15.93;3.20;;;;;;;;;;5057342;28;20448;-72
2021/03/28 03:34:19;;;;;;;9.80;3.27;;;;;;;;;;5057369;28;20524;-72
2021/03/28 03:36:55;;;;;;;10.70;2.07;;;;;;;;;;5057158;28;20839;-72
2021/03/28 03:39:35;;;;;;;7.10;2.80;;;;;;;;;;5056361;28;20489;-72
2021/03/28 03:42:16;;;;;;;8.67;2.63;;;;;;;;;;5057147;28;20478;-72
2021/03/28 03:44:58;;;;;;;9.10;2.53;;;;;;;;;;5056987;28;20704;-71
2021/03/28 03:47:26;;;;;;;9.63;2.43;;;;;;;;;;5055672;28;20460;-72
2021/03/28 03:50:07;;;;;;;12.43;2.87;;;;;;;;;;5056474;28;20857;-72
2021/03/28 03:52:53;;;;;;;8.27;2.37;;;;;;;;;;5056850;28;20446;-72
2021/03/28 03:55:26;;;;;;;4.13;2.47;;;;;;;;;;5056607;28;20461;-71
2021/03/28 03:57:56;;;;;;;7.73;2.90;;;;;;;;;;5061120;28;20448;-72
2021/03/28 04:03:30;;;;;;;10.93;3.27;;;;;;;;;;5076043;28;20890;-72
2021/03/28 04:06:13;;;;;;;7.70;2.50;;;;;;;;;;5076530;28;20802;-71
2021/03/28 04:08:56;;;;;;;6.23;2.50;;;;;;;;;;5076142;28;20484;-72
2021/03/28 04:11:41;;;;;;;9.30;2.70;;;;;;;;;;5076767;28;20449;-72
2021/03/28 04:14:12;;;;;;;8.53;2.53;;;;;;;;;;5080430;28;20464;-72
2021/03/28 04:16:45;;;;;;;9.70;2.63;;;;;;;;;;5096679;28;20460;-71
2021/03/28 04:19:27;;;;;;;10.80;2.90;;;;;;;;;;5097588;28;20484;-72
2021/03/28 04:22:08;;;;;;;6.50;2.40;;;;;;;;;;5073035;28;20461;-72
2021/03/28 04:24:41;;;;;;;17.50;3.30;;;;;;;;;;5056988;28;20454;-71
2021/03/28 04:27:20;;;;;;;12.33;3.63;;;;;;;;;;5057128;28;20885;-72
2021/03/28 04:29:50;;;;;;;6.40;2.63;;;;;;;;;;5056430;28;20611;-72
2021/03/28 04:32:40;;;;;;;10.10;2.50;;;;;;;;;;5076360;28;20502;-71
2021/03/28 04:35:18;;;;;;;12.83;2.70;;;;;;;;;;5077088;28;20453;-72
2021/03/28 04:37:53;;;;;;;7.87;3.50;;;;;;;;;;5076507;28;20456;-72
2021/03/28 04:40:38;;;;;;;12.57;2.70;;;;;;;;;;5061997;28;20831;-72
2021/03/28 04:43:33;;;;;;;14.90;3.30;;;;;;;;;;5055797;28;20445;-72
2021/03/28 04:46:15;;;;;;;8.40;2.67;;;;;;;;;;5010407;28;20461;-72
2021/03/28 04:49:06;;;;;;;6.83;2.57;;;;;;;;;;5053783;28;20466;-72
2021/03/28 04:51:57;;;;;;;11.23;2.80;;;;;;;;;;5056689;28;20458;-71
2021/03/28 04:54:48;;;;;;;7.00;2.77;;;;;;;;;;5055381;28;20836;-72
2021/03/28 04:57:22;;;;;;;7.83;2.30;;;;;;;;;;5055970;28;20885;-71
2021/03/28 05:00:08;;;;;;;13.47;3.20;;;;;;;;;;5056247;28;20492;-71
2021/03/28 05:02:47;;;;;;;8.00;2.87;;;;;;;;;;5055989;28;20738;-71
2021/03/28 05:05:39;;;;;;;11.60;2.40;;;;;;;;;;5056287;28;20465;-72
2021/03/28 05:08:24;;;;;;;11.73;3.83;;;;;;;;;;5036132;28;20576;-71
2021/03/28 05:11:03;;;;;;;11.53;2.80;;;;;;;;;;5058819;28;20903;-71
2021/03/28 05:13:51;;;;;;;8.57;2.13;;;;;;;;;;5078790;28;20522;-72
2021/03/28 05:16:39;;;;;;;5.83;2.20;;;;;;;;;;5059621;28;20457;-71
2021/03/28 05:19:34;;;;;;;8.40;3.23;;;;;;;;;;5060167;28;20485;-71
2021/03/28 05:22:10;;;;;;;8.00;2.30;;;;;;;;;;5059238;28;20454;-71
2021/03/28 05:24:50;;;;;;;7.43;2.97;;;;;;;;;;5075771;28;20467;-72
2021/03/28 05:27:36;;;;;;;8.07;2.50;;;;;;;;;;5070218;28;20460;-72
2021/03/28 05:30:14;;;;;;;6.27;2.10;;;;;;;;;;5059835;28;20450;-72
2021/03/28 05:32:54;;;;;;;13.30;2.47;;;;;;;;;;5059560;28;20733;-72
2021/03/28 05:35:42;;;;;;;10.53;2.57;;;;;;;;;;5060470;28;20599;-72
2021/03/28 05:38:36;;;;;;;5.10;2.13;;;;;;;;;;5059902;28;20880;-73
2021/03/28 05:41:31;;;;;;;6.37;2.60;;;;;;;;;;5012581;28;20485;-73
2021/03/28 05:44:27;;;;;;;12.67;3.10;;;;;;;;;;5059733;28;20560;-72
2021/03/28 05:47:14;;;;;;;8.97;3.33;;;;;;;;;;5059776;28;20445;-72
2021/03/28 05:49:58;;;;;;;7.60;2.23;;;;;;;;;;5059874;28;20530;-72
2021/03/28 05:52:52;;;;;;;7.07;2.50;;;;;;;;;;5046769;28;20736;-72
2021/03/28 05:55:44;;;;;;;9.97;2.70;;;;;;;;;;5012260;28;20536;-72
2021/03/28 05:58:29;;;;;;;10.00;3.00;;;;;;;;;;4985168;28;20451;-72
2021/03/28 06:01:22;;;;;;;11.50;2.37;;;;;;;;;;5059273;28;20485;-72
2021/03/28 06:04:08;;;;;;;12.30;2.77;;;;;;;;;;5058131;28;20455;-72
2021/03/28 06:07:07;;;;;;;9.40;3.00;;;;;;;;;;5058286;28;20520;-72
2021/03/28 06:09:53;;;;;;;9.47;3.03;;;;;;;;;;5057281;28;20453;-72
2021/03/28 06:12:33;;;;;;;10.77;2.77;;;;;;;;;;5057490;28;20458;-72
2021/03/28 06:15:24;;;;;;;5.87;2.80;;;;;;;;;;5057938;28;20527;-72
2021/03/28 06:18:06;;;;;;;8.40;2.70;;;;;;;;;;4976395;28;20441;-72
2021/03/28 06:20:42;;;;;;;10.07;2.73;;;;;;;;;;4989180;28;20499;-71
2021/03/28 06:23:33;;;;;;;5.23;1.90;;;;;;;;;;5074799;28;20456;-72
2021/03/28 06:26:24;;;;;;;9.80;3.10;;;;;;;;;;5078517;28;20445;-72
2021/03/28 06:29:27;;;;;;;6.50;2.60;;;;;;;;;;5042753;28;20536;-71
2021/03/28 06:32:12;;;;;;;8.90;2.83;;;;;;;;;;5059186;28;20449;-72
2021/03/28 06:35:00;;;;;;;7.70;2.70;;;;;;;;;;5059008;28;20869;-72
2021/03/28 06:37:48;;;;;;;7.50;3.20;;;;;;;;;;5068034;28;20457;-72
2021/03/28 06:40:38;;;;;;;5.93;2.50;;;;;;;;;;5078652;28;20780;-72
2021/03/28 06:43:24;;;;;;;11.90;1.63;;;;;;;;;;5078321;28;20450;-72
2021/03/28 06:46:03;;;;;;;11.50;2.47;;;;;;;;;;5078190;28;20927;-72
2021/03/28 06:48:49;;;;;;;5.93;2.40;;;;;;;;;;5077800;28;20464;-73
2021/03/28 06:51:34;;;;;;;8.23;2.20;;;;;;;;;;5038723;28;20808;-71
2021/03/28 06:54:22;;;;;;;5.77;2.50;;;;;;;;;;5057943;28;20523;-72
2021/03/28 06:57:17;;;;;;;12.27;2.70;;;;;;;;;;5057510;28;20461;-72
2021/03/28 06:59:54;;;;;;;10.63;2.60;;;;;;;;;;5058714;28;20809;-72
2021/03/28 07:02:27;;;;;;;14.80;3.40;;;;;;;;;;5058131;28;20450;-72
2021/03/28 07:05:12;;;;;;;13.23;3.63;;;;;;;;;;5057796;28;20457;-72
2021/03/28 07:07:46;;;;;;;6.73;2.47;;;;;;;;;;5057551;28;20514;-72
2021/03/28 07:10:22;;;;;;;8.30;3.00;;;;;;;;;;5057453;28;20486;-72
2021/03/28 07:13:05;;;;;;;7.27;2.33;;;;;;;;;;5067426;28;20464;-72
2021/03/28 07:15:41;;;;;;;8.87;3.27;;;;;;;;;;5077261;28;20967;-72
2021/03/28 07:18:16;;;;;;;4.47;2.37;;;;;;;;;;5076430;28;20479;-72
2021/03/28 07:21:00;;;;;;;6.40;2.40;;;;;;;;;;5076653;28;20489;-72
2021/03/28 07:23:38;;;;;;;13.60;3.57;;;;;;;;;;5075948;28;20870;-72
2021/03/28 07:26:09;;;;;;;5.67;2.20;;;;;;;;;;5077149;28;20493;-72
2021/03/28 07:28:54;;;;;;;4.73;2.80;;;;;;;;;;5076756;28;20453;-72
2021/03/28 07:31:35;;;;;;;10.37;3.07;;;;;;;;;;5068201;28;20489;-72
2021/03/28 07:34:24;;;;;;;5.20;1.93;;;;;;;;;;5056321;28;20473;-72
2021/03/28 07:37:25;;;;;;;13.40;3.00;;;;;;;;;;5032144;28;20440;-72
2021/03/28 07:43:04;;;;;;;7.87;3.00;;;;;;;;;;5075896;28;20829;-72
2021/03/28 07:45:49;;;;;;;6.00;3.23;;;;;;;;;;5076719;28;20458;-72
2021/03/28 07:48:40;;;;;;;10.30;3.00;;;;;;;;;;5076309;28;20502;-72
2021/03/28 07:51:16;;;;;;;8.40;2.87;;;;;;;;;;5076713;28;20526;-72
2021/03/28 07:54:05;;;;;;;8.63;3.37;;;;;;;;;;5078184;28;20451;-72
2021/03/28 07:56:42;;;;;;;7.50;3.07;;;;;;;;;;5078060;28;20445;-72
2021/03/28 07:59:15;;;;;;;7.87;3.23;;;;;;;;;;5061999;28;20450;-72
2021/03/28 08:02:05;;;;;;;8.37;3.47;;;;;;;;;;5057371;28;20811;-72
2021/03/28 08:05:00;;;;;;;4.27;2.27;;;;;;;;;;5056056;28;20465;-72
2021/03/28 08:07:37;;;;;;;7.90;4.33;;;;;;;;;;5059479;28;20452;-72
2021/03/28 08:10:19;;;;;;;5.00;2.97;;;;;;;;;;5075159;28;20501;-72
2021/03/28 08:12:56;;;;;;;9.50;3.00;;;;;;;;;;5057867;28;20457;-71
2021/03/28 08:15:31;;;;;;;8.80;3.07;;;;;;;;;;5075902;28;20457;-72
2021/03/28 08:18:06;;;;;;;9.67;3.27;;;;;;;;;;5075476;28;20705;-72
2021/03/28 08:20:43;;;;;;;6.97;2.97;;;;;;;;;;5075339;28;20588;-72
2021/03/28 08:23:19;;;;;;;10.30;4.27;;;;;;;;;;5075816;28;20845;-72
2021/03/28 08:25:57;;;;;;;8.17;2.67;;;;;;;;;;5056967;28;20490;-72
2021/03/28 08:28:43;;;;;;;11.63;2.97;;;;;;;;;;5058231;28;20489;-72
2021/03/28 08:31:20;;;;;;;9.10;2.97;;;;;;;;;;5077195;28;20451;-71
2021/03/28 08:34:05;;;;;;;5.53;1.77;;;;;;;;;;5076418;28;20476;-71
2021/03/28 08:36:47;;;;;;;8.20;3.00;;;;;;;;;;5075729;28;20464;-71
2021/03/28 08:39:25;;;;;;;15.57;4.80;;;;;;;;;;5075218;28;20455;-72
2021/03/28 08:42:11;;;;;;;10.27;4.77;;;;;;;;;;5075732;28;20787;-71
2021/03/28 08:44:58;;;;;;;8.77;3.70;;;;;;;;;;5076849;28;20720;-71
2021/03/28 08:47:41;;;;;;;11.40;3.63;;;;;;;;;;5079543;28;20705;-71
2021/03/28 08:50:17;;;;;;;13.87;4.70;;;;;;;;;;5080134;28;20451;-71
2021/03/28 08:52:53;;;;;;;13.17;4.30;;;;;;;;;;5079551;28;20449;-71
2021/03/28 08:55:30;;;;;;;10.33;4.40;;;;;;;;;;5079717;28;20891;-71
2021/03/28 08:58:02;;;;;;;10.67;2.63;;;;;;;;;;5079556;28;20478;-72
2021/03/28 09:00:35;;;;;;;7.90;4.40;;;;;;;;;;5079870;28;20492;-71
2021/03/28 09:06:03;;;;;;;9.67;4.50;;;;;;;;;;5093592;28;20559;-72
2021/03/28 09:08:34;;;;;;;13.37;3.47;;;;;;;;;;5094583;28;20444;-72
2021/03/28 09:11:22;;;;;;;9.97;3.30;;;;;;;;;;5095446;28;20440;-72
2021/03/28 09:13:51;;;;;;;5.77;3.10;;;;;;;;;;5095165;28;20595;-72
2021/03/28 09:16:29;;;;;;;12.37;4.43;;;;;;;;;;5094586;28;20444;-72
2021/03/28 09:19:05;;;;;;;13.13;3.50;;;;;;;;;;5093657;28;20464;-72
2021/03/28 09:21:39;;;;;;;6.47;3.13;;;;;;;;;;5092375;28;20457;-71
2021/03/28 09:24:17;;;;;;;6.63;2.47;;;;;;;;;;5093442;28;20723;-72
2021/03/28 09:26:54;;;;;;;7.83;3.20;;;;;;;;;;5092927;28;20882;-72
2021/03/28 09:29:35;;;;;;;9.20;3.47;;;;;;;;;;5093580;28;20533;-72
2021/03/28 09:32:14;;;;;;;9.70;3.40;;;;;;;;;;5073498;28;20488;-72
2021/03/28 09:34:50;;;;;;;8.70;2.70;;;;;;;;;;5072928;28;20453;-72
2021/03/28 09:37:23;;;;;;;4.33;2.30;;;;;;;;;;5072632;28;20451;-71
2021/03/28 09:39:56;;;;;;;9.37;2.97;;;;;;;;;;5075162;28;20464;-72
2021/03/28 09:42:38;;;;;;;4.70;2.17;;;;;;;;;;5092416;28;20442;-72
2021/03/28 09:45:20;;;;;;;9.47;2.90;;;;;;;;;;5092711;28;20487;-72
2021/03/28 09:47:57;;;;;;;6.57;2.33;;;;;;;;;;5093223;28;20463;-72
2021/03/28 09:50:28;;;;;;;7.37;2.30;;;;;;;;;;5091295;28;20451;-72
2021/03/28 09:53:05;;;;;;;6.03;2.80;;;;;;;;;;5078490;28;20460;-71
2021/03/28 09:56:03;;;;;;;3.90;2.23;;;;;;;;;;5091453;28;20860;-72
2021/03/28 09:58:44;;;;;;;7.90;4.33;;;;;;;;;;5011261;28;20452;-72
2021/03/28 10:01:28;;;;;;;6.50;2.10;;;;;;;;;;5061658;28;20562;-72
2021/03/28 10:03:58;;;;;;;4.13;1.87;;;;;;;;;;5086301;28;20580;-72
2021/03/28 10:06:27;;;;;;;4.20;2.30;;;;;;;;;;5092555;28;20451;-72
2021/03/28 10:09:01;;;;;;;4.80;1.57;;;;;;;;;;5091823;28;20468;-72
2021/03/28 10:11:35;;;;;;;3.67;1.70;;;;;;;;;;5092035;28;20915;-72
2021/03/28 10:14:29;;;;;;;5.37;2.10;;;;;;;;;;5092089;28;20542;-72
2021/03/28 10:17:13;;;;;;;3.23;1.77;;;;;;;;;;5077772;28;20460;-72
2021/03/28 10:19:42;;;;;;;4.00;2.63;;;;;;;;;;5078675;28;20484;-72
2021/03/28 10:22:17;;;;;;;11.00;2.30;;;;;;;;;;5078980;28;20460;-72
2021/03/28 10:25:02;;;;;;;6.70;2.73;;;;;;;;;;5078423;28;21026;-73
2021/03/28 10:27:47;;;;;;;6.43;1.70;;;;;;;;;;5077517;28;20511;-72
2021/03/28 10:30:21;;;;;;;6.53;1.87;;;;;;;;;;5065460;28;20523;-72
2021/03/28 10:32:59;;;;;;;11.17;4.90;;;;;;;;;;5078688;28;20433;-73
2021/03/28 10:35:38;;;;;;;5.90;1.77;;;;;;;;;;5077208;28;20459;-73
2021/03/28 10:38:23;;;;;;;7.17;2.43;;;;;;;;;;5076766;28;20708;-72
2021/03/28 10:40:58;;;;;;;4.20;1.80;;;;;;;;;;5035970;28;20788;-72
2021/03/28 10:43:43;;;;;;;4.73;1.60;;;;;;;;;;5077863;28;20456;-73
2021/03/28 10:46:44;;;;;;;7.27;2.47;;;;;;;;;;5077699;28;20447;-72
2021/03/28 10:49:26;;;;;;;7.23;1.80;;;;;;;;;;5078554;28;20708;-72
2021/03/28 10:52:07;;;;;;;8.30;2.60;;;;;;;;;;5076764;28;20460;-72
2021/03/28 10:55:01;;;;;;;7.47;2.23;;;;;;;;;;5079564;28;20456;-72
2021/03/28 10:57:52;;;;;;;5.70;2.27;;;;;;;;;;5078406;28;20904;-74
2021/03/28 11:00:36;;;;;;;7.20;2.47;;;;;;;;;;5077695;28;20464;-72
2021/03/28 11:03:27;;;;;;;5.10;1.60;;;;;;;;;;5078011;28;20459;-72
2021/03/28 11:06:10;;;;;;;4.37;2.50;;;;;;;;;;4995613;28;20512;-72
2021/03/28 11:08:53;;;;;;;5.57;1.50;;;;;;;;;;4995886;28;20448;-72
2021/03/28 11:11:39;;;;;;;8.47;2.20;;;;;;;;;;5077738;28;20463;-71
2021/03/28 11:14:27;;;;;;;8.63;2.30;;;;;;;;;;5076715;28;20448;-72
2021/03/28 11:17:09;;;;;;;6.23;2.13;;;;;;;;;;5077119;28;20488;-70
2021/03/28 11:20:00;;;;;;;8.30;2.10;;;;;;;;;;5078189;28;20476;-71
2021/03/28 11:22:41;;;;;;;5.60;2.60;;;;;;;;;;5077796;28;20445;-71
2021/03/28 11:25:28;;;;;;;6.07;2.93;;;;;;;;;;5070912;28;20480;-72
2021/03/28 11:28:12;;;;;;;6.00;2.27;;;;;;;;;;5076011;28;20740;-72
2021/03/28 11:30:44;;;;;;;4.60;2.30;;;;;;;;;;5076961;28;20449;-72
2021/03/28 11:33:15;;;;;;;6.87;3.40;;;;;;;;;;5076704;28;20468;-72
2021/03/28 11:35:43;;;;;;;7.80;2.33;;;;;;;;;;5076931;28;20534;-72
2021/03/28 11:38:29;;;;;;;8.43;2.03;;;;;;;;;;5076326;28;20460;-71
2021/03/28 11:41:11;;;;;;;4.13;1.60;;;;;;;;;;5076901;28;20833;-72
2021/03/28 11:43:41;;;;;;;8.50;2.10;;;;;;;;;;5076404;28;20526;-71
2021/03/28 11:46:26;;;;;;;5.40;1.70;;;;;;;;;;5076157;28;20459;-71
2021/03/28 11:49:08;;;;;;;6.93;1.83;;;;;;;;;;5077105;28;20483;-72
2021/03/28 11:51:45;;;;;;;4.70;1.27;;;;;;;;;;5076016;28;20536;-71
2021/03/28 11:54:18;;;;;;;3.93;1.87;;;;;;;;;;5076823;28;20487;-71
2021/03/28 11:56:48;;;;;;;6.50;2.53;;;;;;;;;;5076834;28;20540;-71
2021/03/28 12:02:21;;;;;;;7.43;1.67;;;;;;;;;;5156538;27;20359;-71
2021/03/28 12:04:51;;;;;;;5.00;2.53;;;;;;;;;;5154576;27;20443;-71
2021/03/28 12:07:21;;;;;;;4.70;1.50;;;;;;;;;;5147334;27;20546;-71
2021/03/28 12:09:53;;;;;;;3.90;1.40;;;;;;;;;;5133397;27;20473;-71
2021/03/28 12:12:25;;;;;;;6.77;1.70;;;;;;;;;;5133935;27;20515;-71
2021/03/28 12:14:54;;;;;;;3.83;1.60;;;;;;;;;;5132028;27;20446;-72
2021/03/28 12:17:31;;;;;;;6.67;2.07;;;;;;;;;;5133255;27;20454;-71
2021/03/28 12:20:18;;;;;;;6.30;1.30;;;;;;;;;;5132426;27;20482;-71
2021/03/28 12:22:54;;;;;;;8.80;1.93;;;;;;;;;;5133917;27;20452;-71
2021/03/28 12:25:31;;;;;;;5.63;1.67;;;;;;;;;;5133487;27;20757;-71
2021/03/28 12:28:24;;;;;;;4.50;1.43;;;;;;;;;;5132360;27;20446;-72
2021/03/28 12:30:57;;;;;;;3.50;2.23;;;;;;;;;;5133117;27;20455;-72
2021/03/28 12:33:45;;;;;;;3.70;1.80;;;;;;;;;;5132824;27;20490;-71
2021/03/28 12:36:17;;;;;;;8.47;1.40;;;;;;;;;;5131906;27;20513;-72
2021/03/28 12:38:54;;;;;;;3.70;1.27;;;;;;;;;;5153140;27;20500;-71
2021/03/28 12:41:39;;;;;;;6.90;1.70;;;;;;;;;;5173671;27;20475;-72
2021/03/28 12:44:24;;;;;;;3.97;1.43;;;;;;;;;;5173718;27;20499;-72
2021/03/28 12:47:10;;;;;;;5.63;1.90;;;;;;;;;;5174362;27;20828;-71
2021/03/28 12:49:52;;;;;;;4.60;1.20;;;;;;;;;;5173260;27;20437;-72
2021/03/28 12:52:36;;;;;;;8.80;2.67;;;;;;;;;;5173567;27;20482;-72
2021/03/28 12:55:21;;;;;;;8.00;2.30;;;;;;;;;;5167782;27;20479;-70
2021/03/28 12:57:53;;;;;;;6.77;1.87;;;;;;;;;;5131522;27;20453;-73
2021/03/28 13:00:26;;;;;;;3.97;1.63;;;;;;;;;;5132605;27;20486;-72
2021/03/28 13:02:54;;;;;;;6.90;1.77;;;;;;;;;;5132163;27;20900;-72
2021/03/28 13:05:26;;;;;;;6.60;2.20;;;;;;;;;;5130839;27;20443;-72
2021/03/28 13:07:59;;;;;;;6.87;2.00;;;;;;;;;;5132197;27;20451;-72
2021/03/28 13:10:28;;;;;;;3.40;1.80;;;;;;;;;;5133975;27;20528;-72
2021/03/28 13:12:57;;;;;;;4.63;1.70;;;;;;;;;;5121459;27;20459;-71
2021/03/28 13:15:30;;;;;;;6.37;2.23;;;;;;;;;;5134000;27;20446;-71
2021/03/28 13:18:14;;;;;;;3.07;2.30;;;;;;;;;;5137401;27;20454;-72
2021/03/28 13:20:44;;;;;;;7.93;2.37;;;;;;;;;;5131961;27;20569;-72
2021/03/28 13:23:26;;;;;;;5.97;2.20;;;;;;;;;;5118741;27;20451;-72
2021/03/28 13:26:17;;;;;;;4.00;2.03;;;;;;;;;;5118698;27;20519;-71
2021/03/28 13:28:46;;;;;;;6.67;1.80;;;;;;;;;;5118428;27;20455;-70
2021/03/28 13:31:16;;;;;;;7.97;2.60;;;;;;;;;;5117930;27;20486;-71
2021/03/28 13:33:45;;;;;;;7.00;2.03;;;;;;;;;;5117854;27;20821;-72
2021/03/28 13:36:23;;;;;;;5.93;1.73;;;;;;;;;;5118441;27;20439;-72
2021/03/28 13:39:12;;;;;;;5.33;1.97;;;;;;;;;;5116467;27;20473;-71
2021/03/28 13:41:41;;;;;;;4.70;2.10;;;;;;;;;;5111228;27;20494;-71
2021/03/28 13:44:19;;;;;;;4.23;1.43;;;;;;;;;;5118980;27;20467;-72
2021/03/28 13:46:48;;;;;;;6.27;2.33;;;;;;;;;;5120895;27;20431;-71
2021/03/28 13:49:25;;;;;;;3.27;1.50;;;;;;;;;;5127378;27;20534;-71
2021/03/28 13:52:06;;;;;;;7.43;2.93;;;;;;;;;;5117732;27;20879;-71
2021/03/28 13:54:34;;;;;;;7.03;1.93;;;;;;;;;;5118939;27;20482;-71
2021/03/28 13:57:04;;;;;;;3.30;1.33;;;;;;;;;;5117814;27;20815;-71
2021/03/28 13:59:34;;;;;;;8.23;2.20;;;;;;;;;;5118064;27;20903;-72
2021/03/28 14:02:05;;;;;;;2.77;1.30;;;;;;;;;;5119221;27;20886;-71
2021/03/28 14:04:38;;;;;;;5.63;2.03;;;;;;;;;;5117846;27;20490;-71
2021/03/28 14:07:17;;;;;;;6.53;2.17;;;;;;;;;;5118366;27;20727;-71
2021/03/28 14:09:46;;;;;;;8.03;2.20;;;;;;;;;;5117795;27;20512;-71
2021/03/28 14:12:27;;;;;;;8.57;2.20;;;;;;;;;;5117698;27;20520;-71
2021/03/28 14:15:03;;;;;;;4.00;2.07;;;;;;;;;;5118434;27;20764;-71
2021/03/28 14:17:34;;;;;;;4.17;1.80;;;;;;;;;;5118813;27;20435;-72
2021/03/28 14:20:07;;;;;;;7.83;2.40;;;;;;;;;;5118089;27;20463;-71
2021/03/28 14:22:39;;;;;;;5.53;3.13;;;;;;;;;;5116990;27;20568;-70
2021/03/28 14:25:10;;;;;;;3.90;2.30;;;;;;;;;;5136263;27;20882;-71
2021/03/28 14:27:46;;;;;;;2.70;1.93;;;;;;;;;;5136804;27;20873;-71
2021/03/28 14:30:18;;;;;;;6.80;2.97;;;;;;;;;;5138218;27;20446;-70
2021/03/28 14:32:51;;;;;;;3.90;1.80;;;;;;;;;;5137267;27;20464;-72
2021/03/28 14:35:37;;;;;;;6.10;2.73;;;;;;;;;;5139269;27;20444;-72
2021/03/28 14:38:27;;;;;;;5.37;2.13;;;;;;;;;;5138326;27;20947;-72
2021/03/28 14:41:13;;;;;;;7.67;2.63;;;;;;;;;;5136515;27;20482;-72
2021/03/28 14:44:04;;;;;;;6.10;2.53;;;;;;;;;;5145126;27;20868;-72
2021/03/28 14:46:44;;;;;;;5.57;2.50;;;;;;;;;;5064569;27;20519;-72
2021/03/28 14:49:20;;;;;;;4.73;2.03;;;;;;;;;;5157207;27;20497;-72
2021/03/28 14:52:09;;;;;;;8.30;2.43;;;;;;;;;;5157917;27;20513;-72
2021/03/28 14:54:48;;;;;;;6.63;2.53;;;;;;;;;;5146070;27;20903;-72
2021/03/28 14:57:26;;;;;;;7.40;2.30;;;;;;;;;;5135141;27;20954;-72
2021/03/28 14:59:57;;;;;;;11.23;2.77;;;;;;;;;;5138141;27;20523;-71
2021/03/28 15:02:29;;;;;;;5.50;2.63;;;;;;;;;;5137250;27;20450;-72
2021/03/28 15:05:17;;;;;;;9.37;2.67;;;;;;;;;;5137823;27;20469;-72
2021/03/28 15:07:54;;;;;;;5.70;2.70;;;;;;;;;;5035560;28;20489;-72
2021/03/28 15:10:32;;;;;;;8.20;1.93;;;;;;;;;;5136600;27;20930;-72
2021/03/28 15:13:07;;;;;;;2.90;2.00;;;;;;;;;;5136744;27;21001;-72
2021/03/28 15:15:42;;;;;;;14.33;2.80;;;;;;;;;;5138204;27;20446;-72
2021/03/28 15:18:20;;;;;;;8.07;3.17;;;;;;;;;;5135752;27;20561;-72
2021/03/28 15:20:49;;;;;;;5.23;2.30;;;;;;;;;;5135799;27;20524;-72
2021/03/28 15:23:24;;;;;;;5.10;2.23;;;;;;;;;;5137457;27;20489;-72
2021/03/28 15:25:54;;;;;;;8.70;2.53;;;;;;;;;;5137528;27;20452;-72
2021/03/28 15:28:27;;;;;;;8.33;2.20;;;;;;;;;;5136305;27;20468;-72
2021/03/28 15:31:08;;;;;;;7.83;2.90;;;;;;;;;;5135725;27;20553;-72
2021/03/28 15:33:54;;;;;;;4.60;1.83;;;;;;;;;;5136066;27;20531;-72
2021/03/28 15:36:26;;;;;;;7.13;2.83;;;;;;;;;;5135477;27;20473;-72
2021/03/28 15:39:02;;;;;;;7.90;2.07;;;;;;;;;;5137297;27;20531;-72
2021/03/28 15:41:42;;;;;;;6.50;2.50;;;;;;;;;;5135314;27;20769;-72
2021/03/28 15:44:24;;;;;;;3.60;2.77;;;;;;;;;;5138026;27;20518;-72
2021/03/28 15:46:58;;;;;;;4.93;2.37;;;;;;;;;;5083997;28;20741;-72
2021/03/28 15:49:42;;;;;;;8.10;3.20;;;;;;;;;;5137132;27;20933;-72
2021/03/28 15:52:16;;;;;;;5.47;2.87;;;;;;;;;;5138020;27;20455;-71
2021/03/28 15:54:53;;;;;;;8.43;3.50;;;;;;;;;;5136475;27;20802;-72
2021/03/28 15:57:36;;;;;;;5.90;3.10;;;;;;;;;;5134351;27;20938;-73
2021/03/28 16:00:20;;;;;;;6.90;2.00;;;;;;;;;;5117800;27;20451;-73
2021/03/28 16:03:18;;;;;;;8.00;2.63;;;;;;;;;;5116908;27;20435;-73